sensor_id;sensor_type;location;lat;lon;timestamp;pressure;altitude;pressure_sealevel;temperature
11926;BMP180;6022;48.768;18.608;2022-11-20T00:01:31;97969.72;;;2.22
11926;BMP180;6022;48.768;18.608;2022-11-20T00:04:01;97962.31;;;2.19
11926;BMP180;6022;48.768;18.608;2022-11-20T00:06:32;97960.84;;;2.13
11926;BMP180;6022;48.768;18.608;2022-11-20T00:09:00;97964.28;;;2.11
11926;BMP180;6022;48.768;18.608;2022-11-20T00:11:30;97971.78;;;2.11
11926;BMP180;6022;48.768;18.608;2022-11-20T00:14:00;97976.84;;;2.09
11926;BMP180;6022;48.768;18.608;2022-11-20T00:16:31;97960.28;;;2.07
11926;BMP180;6022;48.768;18.608;2022-11-20T00:19:06;97961.72;;;2.12
11926;BMP180;6022;48.768;18.608;2022-11-20T00:21:39;97956.78;;;2.11
11926;BMP180;6022;48.768;18.608;2022-11-20T00:24:09;97967.69;;;2.10
11926;BMP180;6022;48.768;18.608;2022-11-20T00:26:37;97966.03;;;2.09
11926;BMP180;6022;48.768;18.608;2022-11-20T00:29:09;97976.78;;;2.11
11926;BMP180;6022;48.768;18.608;2022-11-20T00:31:37;97963.34;;;2.13
11926;BMP180;6022;48.768;18.608;2022-11-20T00:34:05;97956.72;;;2.12
11926;BMP180;6022;48.768;18.608;2022-11-20T00:36:34;97949.19;;;2.14
11926;BMP180;6022;48.768;18.608;2022-11-20T00:39:02;97948.53;;;2.09
11926;BMP180;6022;48.768;18.608;2022-11-20T00:41:30;97946.03;;;2.09
11926;BMP180;6022;48.768;18.608;2022-11-20T00:43:57;97949.28;;;2.11
11926;BMP180;6022;48.768;18.608;2022-11-20T00:46:27;97953.44;;;2.12
11926;BMP180;6022;48.768;18.608;2022-11-20T00:48:55;97956.69;;;2.14
11926;BMP180;6022;48.768;18.608;2022-11-20T00:51:25;97960.75;;;2.16
11926;BMP180;6022;48.768;18.608;2022-11-20T00:54:00;97963.19;;;2.18
11926;BMP180;6022;48.768;18.608;2022-11-20T00:56:28;97963.94;;;2.20
11926;BMP180;6022;48.768;18.608;2022-11-20T00:59:00;97961.41;;;2.21
11926;BMP180;6022;48.768;18.608;2022-11-20T01:01:28;97965.47;;;2.24
11926;BMP180;6022;48.768;18.608;2022-11-20T01:03:59;97964.53;;;2.26
11926;BMP180;6022;48.768;18.608;2022-11-20T01:06:37;97972.78;;;2.28
11926;BMP180;6022;48.768;18.608;2022-11-20T01:09:09;97978.53;;;2.30
11926;BMP180;6022;48.768;18.608;2022-11-20T01:11:42;97975.19;;;2.31
11926;BMP180;6022;48.768;18.608;2022-11-20T01:14:17;97977.53;;;2.34
11926;BMP180;6022;48.768;18.608;2022-11-20T01:16:49;97979.19;;;2.35
11926;BMP180;6022;48.768;18.608;2022-11-20T01:19:21;97975.81;;;2.36
11926;BMP180;6022;48.768;18.608;2022-11-20T01:21:53;97975.75;;;2.37
11926;BMP180;6022;48.768;18.608;2022-11-20T01:24:22;97979.00;;;2.39
11926;BMP180;6022;48.768;18.608;2022-11-20T01:26:51;97979.88;;;2.38
11926;BMP180;6022;48.768;18.608;2022-11-20T01:29:24;97982.22;;;2.43
11926;BMP180;6022;48.768;18.608;2022-11-20T01:31:52;97991.41;;;2.42
11926;BMP180;6022;48.768;18.608;2022-11-20T01:34:21;97992.22;;;2.43
11926;BMP180;6022;48.768;18.608;2022-11-20T01:36:50;97998.03;;;2.43
11926;BMP180;6022;48.768;18.608;2022-11-20T01:39:22;98004.69;;;2.44
11926;BMP180;6022;48.768;18.608;2022-11-20T01:41:52;98011.31;;;2.45
11926;BMP180;6022;48.768;18.608;2022-11-20T01:44:57;98011.25;;;2.47
11926;BMP180;6022;48.768;18.608;2022-11-20T01:47:44;98008.69;;;2.48
11926;BMP180;6022;48.768;18.608;2022-11-20T01:50:26;98008.97;;;2.41
11926;BMP180;6022;48.768;18.608;2022-11-20T01:53:02;98012.47;;;2.37
11926;BMP180;6022;48.768;18.608;2022-11-20T01:55:39;98009.31;;;2.32
11926;BMP180;6022;48.768;18.608;2022-11-20T01:58:09;98006.91;;;2.30
11926;BMP180;6022;48.768;18.608;2022-11-20T02:00:36;98012.72;;;2.31
11926;BMP180;6022;48.768;18.608;2022-11-20T02:03:09;98015.41;;;2.26
11926;BMP180;6022;48.768;18.608;2022-11-20T02:08:33;98001.34;;;2.23
11926;BMP180;6022;48.768;18.608;2022-11-20T02:11:01;98007.22;;;2.22
11926;BMP180;6022;48.768;18.608;2022-11-20T02:13:29;98005.53;;;2.22
11926;BMP180;6022;48.768;18.608;2022-11-20T02:18:46;98015.59;;;2.21
11926;BMP180;6022;48.768;18.608;2022-11-20T02:21:28;98017.28;;;2.20
11926;BMP180;6022;48.768;18.608;2022-11-20T02:27:02;98014.78;;;2.20
11926;BMP180;6022;48.768;18.608;2022-11-20T02:29:44;98016.53;;;2.18
11926;BMP180;6022;48.768;18.608;2022-11-20T02:32:38;98021.59;;;2.17
11926;BMP180;6022;48.768;18.608;2022-11-20T02:37:53;98025.97;;;2.12
11926;BMP180;6022;48.768;18.608;2022-11-20T02:40:22;98020.19;;;2.10
11926;BMP180;6022;48.768;18.608;2022-11-20T02:42:54;98021.00;;;2.10
11926;BMP180;6022;48.768;18.608;2022-11-20T02:45:23;98017.75;;;2.08
11926;BMP180;6022;48.768;18.608;2022-11-20T02:47:53;98015.31;;;2.07
11926;BMP180;6022;48.768;18.608;2022-11-20T02:50:21;98012.00;;;2.06
11926;BMP180;6022;48.768;18.608;2022-11-20T02:52:49;98009.44;;;2.08
11926;BMP180;6022;48.768;18.608;2022-11-20T02:55:18;98011.94;;;2.08
11926;BMP180;6022;48.768;18.608;2022-11-20T02:57:46;98006.94;;;2.08
11926;BMP180;6022;48.768;18.608;2022-11-20T03:00:14;97982.78;;;2.07
11926;BMP180;6022;48.768;18.608;2022-11-20T03:02:43;97999.53;;;2.05
11926;BMP180;6022;48.768;18.608;2022-11-20T03:05:13;97994.59;;;2.03
11926;BMP180;6022;48.768;18.608;2022-11-20T03:07:40;97992.06;;;2.03
11926;BMP180;6022;48.768;18.608;2022-11-20T03:10:09;97971.31;;;2.01
11926;BMP180;6022;48.768;18.608;2022-11-20T03:12:37;97993.78;;;2.03
11926;BMP180;6022;48.768;18.608;2022-11-20T03:15:06;97993.72;;;2.04
11926;BMP180;6022;48.768;18.608;2022-11-20T03:17:36;98002.88;;;2.04
11926;BMP180;6022;48.768;18.608;2022-11-20T03:20:04;97997.13;;;2.02
11926;BMP180;6022;48.768;18.608;2022-11-20T03:22:33;97992.22;;;2.00
11926;BMP180;6022;48.768;18.608;2022-11-20T03:25:00;97999.59;;;2.03
11926;BMP180;6022;48.768;18.608;2022-11-20T03:27:33;98006.22;;;2.04
11926;BMP180;6022;48.768;18.608;2022-11-20T03:30:01;98004.59;;;2.03
11926;BMP180;6022;48.768;18.608;2022-11-20T03:32:29;98002.03;;;2.05
11926;BMP180;6022;48.768;18.608;2022-11-20T03:34:56;98022.03;;;2.05
11926;BMP180;6022;48.768;18.608;2022-11-20T03:37:24;98020.47;;;2.02
11926;BMP180;6022;48.768;18.608;2022-11-20T03:39:52;98012.91;;;2.04
11926;BMP180;6022;48.768;18.608;2022-11-20T03:42:20;98013.78;;;2.03
11926;BMP180;6022;48.768;18.608;2022-11-20T03:45:07;98006.38;;;2.00
11926;BMP180;6022;48.768;18.608;2022-11-20T03:47:35;98003.13;;;1.98
11926;BMP180;6022;48.768;18.608;2022-11-20T03:50:03;98003.88;;;2.00
11926;BMP180;6022;48.768;18.608;2022-11-20T03:52:32;97994.75;;;1.99
11926;BMP180;6022;48.768;18.608;2022-11-20T03:55:00;98001.38;;;2.00
11926;BMP180;6022;48.768;18.608;2022-11-20T03:57:28;97996.22;;;2.04
11926;BMP180;6022;48.768;18.608;2022-11-20T03:59:56;97989.63;;;2.02
11926;BMP180;6022;48.768;18.608;2022-11-20T04:02:24;98003.13;;;1.98
11926;BMP180;6022;48.768;18.608;2022-11-20T04:04:52;98005.66;;;1.96
11926;BMP180;6022;48.768;18.608;2022-11-20T04:07:19;97994.75;;;1.99
11926;BMP180;6022;48.768;18.608;2022-11-20T04:09:48;97995.50;;;2.01
11926;BMP180;6022;48.768;18.608;2022-11-20T04:12:16;97990.53;;;2.01
11926;BMP180;6022;48.768;18.608;2022-11-20T04:14:45;97997.25;;;1.99
11926;BMP180;6022;48.768;18.608;2022-11-20T04:17:13;97998.03;;;2.01
11926;BMP180;6022;48.768;18.608;2022-11-20T04:19:41;97979.47;;;2.06
11926;BMP180;6022;48.768;18.608;2022-11-20T04:22:09;97979.47;;;2.06
11926;BMP180;6022;48.768;18.608;2022-11-20T04:24:38;97962.59;;;2.11
11926;BMP180;6022;48.768;18.608;2022-11-20T04:27:07;97962.78;;;2.07
11926;BMP180;6022;48.768;18.608;2022-11-20T04:29:36;97968.75;;;2.03
11926;BMP180;6022;48.768;18.608;2022-11-20T04:32:04;97967.25;;;1.99
11926;BMP180;6022;48.768;18.608;2022-11-20T04:34:32;97964.75;;;1.99
11926;BMP180;6022;48.768;18.608;2022-11-20T04:37:00;97961.38;;;2.00
11926;BMP180;6022;48.768;18.608;2022-11-20T04:39:27;97959.75;;;1.99
11926;BMP180;6022;48.768;18.608;2022-11-20T04:41:56;97956.41;;;1.98
11926;BMP180;6022;48.768;18.608;2022-11-20T04:44:43;97946.50;;;1.97
11926;BMP180;6022;48.768;18.608;2022-11-20T04:47:10;97946.50;;;1.97
11926;BMP180;6022;48.768;18.608;2022-11-20T04:49:40;97942.06;;;2.03
11926;BMP180;6022;48.768;18.608;2022-11-20T04:52:07;97942.88;;;2.04
11926;BMP180;6022;48.768;18.608;2022-11-20T04:54:34;97936.25;;;2.03
11926;BMP180;6022;48.768;18.608;2022-11-20T04:57:02;97926.31;;;2.01
11926;BMP180;6022;48.768;18.608;2022-11-20T04:59:30;97923.84;;;2.00
11926;BMP180;6022;48.768;18.608;2022-11-20T05:01:57;97928.00;;;2.01
11926;BMP180;6022;48.768;18.608;2022-11-20T05:04:25;97927.06;;;2.03
11926;BMP180;6022;48.768;18.608;2022-11-20T05:06:52;97926.25;;;2.03
11926;BMP180;6022;48.768;18.608;2022-11-20T05:09:20;97925.44;;;2.02
11926;BMP180;6022;48.768;18.608;2022-11-20T05:11:47;97911.28;;;2.01
11926;BMP180;6022;48.768;18.608;2022-11-20T05:14:17;97915.50;;;2.01
11926;BMP180;6022;48.768;18.608;2022-11-20T05:16:45;97923.09;;;1.98
11926;BMP180;6022;48.768;18.608;2022-11-20T05:19:12;97922.25;;;1.99
11926;BMP180;6022;48.768;18.608;2022-11-20T05:21:39;97922.94;;;2.02
11926;BMP180;6022;48.768;18.608;2022-11-20T05:24:07;97911.25;;;2.03
11926;BMP180;6022;48.768;18.608;2022-11-20T05:26:35;97906.28;;;2.01
11926;BMP180;6022;48.768;18.608;2022-11-20T05:29:03;97910.31;;;2.05
11926;BMP180;6022;48.768;18.608;2022-11-20T05:31:31;97914.41;;;2.08
11926;BMP180;6022;48.768;18.608;2022-11-20T05:33:58;97911.28;;;2.01
11926;BMP180;6022;48.768;18.608;2022-11-20T05:36:27;97898.84;;;2.00
11926;BMP180;6022;48.768;18.608;2022-11-20T05:38:55;97893.91;;;1.98
11926;BMP180;6022;48.768;18.608;2022-11-20T05:41:27;97891.47;;;1.97
11926;BMP180;6022;48.768;18.608;2022-11-20T05:43:58;97882.28;;;1.97
11926;BMP180;6022;48.768;18.608;2022-11-20T05:46:26;97883.09;;;1.98
11926;BMP180;6022;48.768;18.608;2022-11-20T05:48:57;97883.84;;;2.00
11926;BMP180;6022;48.768;18.608;2022-11-20T05:51:26;97887.19;;;2.00
11926;BMP180;6022;48.768;18.608;2022-11-20T05:53:56;97884.72;;;1.99
11926;BMP180;6022;48.768;18.608;2022-11-20T05:56:23;97896.34;;;2.00
11926;BMP180;6022;48.768;18.608;2022-11-20T05:58:53;97900.47;;;2.01
11926;BMP180;6022;48.768;18.608;2022-11-20T06:01:25;97903.00;;;2.01
11926;BMP180;6022;48.768;18.608;2022-11-20T06:03:54;97909.59;;;2.02
11926;BMP180;6022;48.768;18.608;2022-11-20T06:06:22;97910.53;;;1.99
11926;BMP180;6022;48.768;18.608;2022-11-20T06:08:49;97909.03;;;1.95
11926;BMP180;6022;48.768;18.608;2022-11-20T06:11:18;97907.38;;;1.94
11926;BMP180;6022;48.768;18.608;2022-11-20T06:13:48;97911.53;;;1.95
11926;BMP180;6022;48.768;18.608;2022-11-20T06:16:19;97915.72;;;1.95
11926;BMP180;6022;48.768;18.608;2022-11-20T06:18:47;97911.47;;;1.97
11926;BMP180;6022;48.768;18.608;2022-11-20T06:21:18;97922.09;;;2.02
11926;BMP180;6022;48.768;18.608;2022-11-20T06:23:47;97921.13;;;2.06
11926;BMP180;6022;48.768;18.608;2022-11-20T06:26:22;97922.66;;;2.10
11926;BMP180;6022;48.768;18.608;2022-11-20T06:28:51;97917.66;;;2.10
11926;BMP180;6022;48.768;18.608;2022-11-20T06:31:21;97923.41;;;2.12
11926;BMP180;6022;48.768;18.608;2022-11-20T06:33:50;97913.31;;;2.13
11926;BMP180;6022;48.768;18.608;2022-11-20T06:36:21;97910.19;;;2.08
11926;BMP180;6022;48.768;18.608;2022-11-20T06:38:50;97919.41;;;2.08
11926;BMP180;6022;48.768;18.608;2022-11-20T06:41:20;97917.75;;;2.07
11926;BMP180;6022;48.768;18.608;2022-11-20T06:43:49;97905.25;;;2.07
11926;BMP180;6022;48.768;18.608;2022-11-20T06:46:19;97912.75;;;2.07
11926;BMP180;6022;48.768;18.608;2022-11-20T06:48:49;97916.00;;;2.09
11926;BMP180;6022;48.768;18.608;2022-11-20T06:51:17;97920.22;;;2.08
11926;BMP180;6022;48.768;18.608;2022-11-20T06:53:45;97916.25;;;2.03
11926;BMP180;6022;48.768;18.608;2022-11-20T06:56:12;97919.56;;;2.03
11926;BMP180;6022;48.768;18.608;2022-11-20T06:58:40;97918.81;;;2.01
11926;BMP180;6022;48.768;18.608;2022-11-20T07:01:13;97924.50;;;2.05
11926;BMP180;6022;48.768;18.608;2022-11-20T07:03:42;97928.50;;;2.09
11926;BMP180;6022;48.768;18.608;2022-11-20T07:06:10;97924.25;;;2.11
11926;BMP180;6022;48.768;18.608;2022-11-20T07:08:39;97923.31;;;2.13
11926;BMP180;6022;48.768;18.608;2022-11-20T07:11:11;97927.41;;;2.16
11926;BMP180;6022;48.768;18.608;2022-11-20T07:13:40;97928.13;;;2.19
11926;BMP180;6022;48.768;18.608;2022-11-20T07:16:08;97934.03;;;2.17
11926;BMP180;6022;48.768;18.608;2022-11-20T07:18:38;97938.94;;;2.20
11926;BMP180;6022;48.768;18.608;2022-11-20T07:21:09;97939.50;;;2.26
11926;BMP180;6022;48.768;18.608;2022-11-20T07:23:38;97935.94;;;2.31
11926;BMP180;6022;48.768;18.608;2022-11-20T07:26:09;97936.69;;;2.33
11926;BMP180;6022;48.768;18.608;2022-11-20T07:28:38;97944.16;;;2.35
11926;BMP180;6022;48.768;18.608;2022-11-20T07:31:06;97953.97;;;2.39
11926;BMP180;6022;48.768;18.608;2022-11-20T07:33:40;97954.63;;;2.44
11926;BMP180;6022;48.768;18.608;2022-11-20T07:36:09;97958.81;;;2.44
11926;BMP180;6022;48.768;18.608;2022-11-20T07:38:40;97959.53;;;2.47
11926;BMP180;6022;48.768;18.608;2022-11-20T07:41:08;97965.34;;;2.48
11926;BMP180;6022;48.768;18.608;2022-11-20T07:43:42;97955.31;;;2.48
11926;BMP180;6022;48.768;18.608;2022-11-20T07:46:17;97964.41;;;2.50
11926;BMP180;6022;48.768;18.608;2022-11-20T07:48:49;97970.91;;;2.54
11926;BMP180;6022;48.768;18.608;2022-11-20T07:51:17;97959.28;;;2.53
11926;BMP180;6022;48.768;18.608;2022-11-20T07:53:44;97957.53;;;2.55
11926;BMP180;6022;48.768;18.608;2022-11-20T07:56:22;97944.13;;;2.56
11926;BMP180;6022;48.768;18.608;2022-11-20T07:58:53;97938.22;;;2.59
11926;BMP180;6022;48.768;18.608;2022-11-20T08:01:21;97942.25;;;2.61
11926;BMP180;6022;48.768;18.608;2022-11-20T08:03:49;97950.41;;;2.66
11926;BMP180;6022;48.768;18.608;2022-11-20T08:06:25;97943.72;;;2.66
11926;BMP180;6022;48.768;18.608;2022-11-20T08:08:53;97946.16;;;2.68
11926;BMP180;6022;48.768;18.608;2022-11-20T08:11:21;97951.03;;;2.71
11926;BMP180;6022;48.768;18.608;2022-11-20T08:14:07;97950.78;;;2.77
11926;BMP180;6022;48.768;18.608;2022-11-20T08:16:46;97955.69;;;2.80
11926;BMP180;6022;48.768;18.608;2022-11-20T08:19:21;97955.56;;;2.83
11926;BMP180;6022;48.768;18.608;2022-11-20T08:21:49;97957.19;;;2.84
11926;BMP180;6022;48.768;18.608;2022-11-20T08:24:17;97958.63;;;2.89
11926;BMP180;6022;48.768;18.608;2022-11-20T08:26:45;97956.06;;;2.91
11926;BMP180;6022;48.768;18.608;2022-11-20T08:29:12;97965.34;;;2.89
11926;BMP180;6022;48.768;18.608;2022-11-20T08:31:41;97952.81;;;2.89
11926;BMP180;6022;48.768;18.608;2022-11-20T08:34:10;97956.06;;;2.91
11926;BMP180;6022;48.768;18.608;2022-11-20T08:36:45;97953.38;;;2.95
11926;BMP180;6022;48.768;18.608;2022-11-20T08:39:13;97957.44;;;2.98
11926;BMP180;6022;48.768;18.608;2022-11-20T08:41:42;97964.88;;;2.99
11926;BMP180;6022;48.768;18.608;2022-11-20T08:44:11;97953.25;;;2.98
11926;BMP180;6022;48.768;18.608;2022-11-20T08:46:42;97956.50;;;3.00
11926;BMP180;6022;48.768;18.608;2022-11-20T08:49:13;97958.06;;;3.02
11926;BMP180;6022;48.768;18.608;2022-11-20T08:51:44;97966.47;;;3.01
11926;BMP180;6022;48.768;18.608;2022-11-20T08:54:16;97962.06;;;3.06
11926;BMP180;6022;48.768;18.608;2022-11-20T08:56:51;97958.81;;;3.04
11926;BMP180;6022;48.768;18.608;2022-11-20T08:59:25;97970.59;;;3.02
11926;BMP180;6022;48.768;18.608;2022-11-20T09:02:13;97959.81;;;3.00
11926;BMP180;6022;48.768;18.608;2022-11-20T09:04:42;97962.38;;;2.99
11926;BMP180;6022;48.768;18.608;2022-11-20T09:07:10;97957.31;;;3.00
11926;BMP180;6022;48.768;18.608;2022-11-20T09:09:40;97954.75;;;3.02
11926;BMP180;6022;48.768;18.608;2022-11-20T09:12:08;97962.31;;;3.00
11926;BMP180;6022;48.768;18.608;2022-11-20T09:14:37;97970.59;;;3.02
11926;BMP180;6022;48.768;18.608;2022-11-20T09:17:05;97976.22;;;3.07
11926;BMP180;6022;48.768;18.608;2022-11-20T09:19:34;97969.41;;;3.11
11926;BMP180;6022;48.768;18.608;2022-11-20T09:22:03;97970.16;;;3.13
11926;BMP180;6022;48.768;18.608;2022-11-20T09:24:30;97971.59;;;3.18
11926;BMP180;6022;48.768;18.608;2022-11-20T09:27:01;97968.84;;;3.24
11926;BMP180;6022;48.768;18.608;2022-11-20T09:29:29;97980.31;;;3.30
11926;BMP180;6022;48.768;18.608;2022-11-20T09:31:57;97980.97;;;3.33
11926;BMP180;6022;48.768;18.608;2022-11-20T09:34:27;97980.97;;;3.33
11926;BMP180;6022;48.768;18.608;2022-11-20T09:36:57;97985.22;;;3.31
11926;BMP180;6022;48.768;18.608;2022-11-20T09:39:32;97977.78;;;3.30
11926;BMP180;6022;48.768;18.608;2022-11-20T09:42:37;97981.09;;;3.30
11926;BMP180;6022;48.768;18.608;2022-11-20T09:48:58;97966.06;;;3.30
11926;BMP180;6022;48.768;18.608;2022-11-20T09:51:57;97971.84;;;3.32
11926;BMP180;6022;48.768;18.608;2022-11-20T09:54:34;97966.56;;;3.38
11926;BMP180;6022;48.768;18.608;2022-11-20T09:57:17;97968.53;;;3.50
11926;BMP180;6022;48.768;18.608;2022-11-20T09:59:56;97960.44;;;3.63
11926;BMP180;6022;48.768;18.608;2022-11-20T10:02:37;97969.03;;;3.76
11926;BMP180;6022;48.768;18.608;2022-11-20T10:05:25;97958.00;;;3.80
11926;BMP180;6022;48.768;18.608;2022-11-20T10:26:49;97948.50;;;4.05
11926;BMP180;6022;48.768;18.608;2022-11-20T10:29:34;97955.00;;;4.09
11926;BMP180;6022;48.768;18.608;2022-11-20T10:32:20;97955.81;;;4.09
11926;BMP180;6022;48.768;18.608;2022-11-20T10:37:51;97964.38;;;4.05
11926;BMP180;6022;48.768;18.608;2022-11-20T10:40:38;97966.13;;;4.03
11926;BMP180;6022;48.768;18.608;2022-11-20T10:43:21;97981.53;;;3.96
11926;BMP180;6022;48.768;18.608;2022-11-20T10:48:33;97981.00;;;3.89
11926;BMP180;6022;48.768;18.608;2022-11-20T10:54:53;97969.06;;;3.94
11926;BMP180;6022;48.768;18.608;2022-11-20T11:00:16;97952.97;;;3.98
11926;BMP180;6022;48.768;18.608;2022-11-20T11:02:54;97963.75;;;4.00
11926;BMP180;6022;48.768;18.608;2022-11-20T11:05:40;97964.50;;;4.02
11926;BMP180;6022;48.768;18.608;2022-11-20T11:08:19;97956.22;;;4.00
11926;BMP180;6022;48.768;18.608;2022-11-20T11:13:46;97962.59;;;4.07
11926;BMP180;6022;48.768;18.608;2022-11-20T11:16:26;97949.25;;;4.07
11926;BMP180;6022;48.768;18.608;2022-11-20T11:19:13;97950.88;;;4.08
11926;BMP180;6022;48.768;18.608;2022-11-20T11:21:56;97941.72;;;4.07
11926;BMP180;6022;48.768;18.608;2022-11-20T11:24:29;97944.81;;;4.12
11926;BMP180;6022;48.768;18.608;2022-11-20T11:27:14;97936.34;;;4.14
11926;BMP180;6022;48.768;18.608;2022-11-20T11:29:46;97936.94;;;4.19
11926;BMP180;6022;48.768;18.608;2022-11-20T11:32:18;97937.63;;;4.22
11926;BMP180;6022;48.768;18.608;2022-11-20T11:35:19;97929.44;;;4.36
11926;BMP180;6022;48.768;18.608;2022-11-20T11:37:48;97927.41;;;4.44
11926;BMP180;6022;48.768;18.608;2022-11-20T11:40:18;97932.28;;;4.47
11926;BMP180;6022;48.768;18.608;2022-11-20T11:42:59;97920.69;;;4.44
11926;BMP180;6022;48.768;18.608;2022-11-20T11:45:30;97924.00;;;4.45
11926;BMP180;6022;48.768;18.608;2022-11-20T11:48:03;97926.28;;;4.49
11926;BMP180;6022;48.768;18.608;2022-11-20T11:50:31;97922.69;;;4.54
11926;BMP180;6022;48.768;18.608;2022-11-20T11:53:21;97920.72;;;4.61
11926;BMP180;6022;48.768;18.608;2022-11-20T11:56:09;97930.38;;;4.68
11926;BMP180;6022;48.768;18.608;2022-11-20T11:58:50;97916.00;;;4.72
11926;BMP180;6022;48.768;18.608;2022-11-20T12:01:59;97929.06;;;4.78
11926;BMP180;6022;48.768;18.608;2022-11-20T12:04:52;97934.75;;;4.82
11926;BMP180;6022;48.768;18.608;2022-11-20T12:07:47;97936.53;;;4.80
11926;BMP180;6022;48.768;18.608;2022-11-20T12:14:29;97949.28;;;4.75
11926;BMP180;6022;48.768;18.608;2022-11-20T12:17:01;97941.75;;;4.75
11926;BMP180;6022;48.768;18.608;2022-11-20T12:19:38;97949.16;;;4.78
11926;BMP180;6022;48.768;18.608;2022-11-20T12:22:38;97945.00;;;4.77
11926;BMP180;6022;48.768;18.608;2022-11-20T12:25:24;97937.69;;;4.73
11926;BMP180;6022;48.768;18.608;2022-11-20T12:37:04;97940.22;;;4.73
11926;BMP180;6022;48.768;18.608;2022-11-20T12:39:43;97941.97;;;4.71
11926;BMP180;6022;48.768;18.608;2022-11-20T12:43:37;97939.59;;;4.68
11926;BMP180;6022;48.768;18.608;2022-11-20T12:48:53;97915.88;;;4.73
11926;BMP180;6022;48.768;18.608;2022-11-20T13:00:10;97903.06;;;4.62
11926;BMP180;6022;48.768;18.608;2022-11-20T13:08:35;97888.84;;;4.78
11926;BMP180;6022;48.768;18.608;2022-11-20T13:19:19;97884.63;;;5.27
11926;BMP180;6022;48.768;18.608;2022-11-20T13:21:49;97880.66;;;5.39
11926;BMP180;6022;48.768;18.608;2022-11-20T13:29:44;97891.97;;;5.47
11926;BMP180;6022;48.768;18.608;2022-11-20T13:32:18;97889.06;;;5.55
11926;BMP180;6022;48.768;18.608;2022-11-20T13:35:02;97890.38;;;5.62
11926;BMP180;6022;48.768;18.608;2022-11-20T13:37:39;97889.31;;;5.65
11926;BMP180;6022;48.768;18.608;2022-11-20T13:42:55;97897.81;;;5.63
11926;BMP180;6022;48.768;18.608;2022-11-20T13:45:29;97888.00;;;5.59
11926;BMP180;6022;48.768;18.608;2022-11-20T13:48:21;97890.66;;;5.56
11926;BMP180;6022;48.768;18.608;2022-11-20T14:00:14;97880.38;;;5.45
11926;BMP180;6022;48.768;18.608;2022-11-20T14:02:45;97877.22;;;5.41
11926;BMP180;6022;48.768;18.608;2022-11-20T14:05:23;97881.50;;;5.39
11926;BMP180;6022;48.768;18.608;2022-11-20T14:07:52;97881.66;;;5.36
11926;BMP180;6022;48.768;18.608;2022-11-20T14:10:32;97875.88;;;5.34
11926;BMP180;6022;48.768;18.608;2022-11-20T14:13:18;97866.94;;;5.29
11926;BMP180;6022;48.768;18.608;2022-11-20T14:15:57;97882.22;;;5.26
11926;BMP180;6022;48.768;18.608;2022-11-20T14:18:26;97892.56;;;5.20
11926;BMP180;6022;48.768;18.608;2022-11-20T14:21:00;97891.00;;;5.18
11926;BMP180;6022;48.768;18.608;2022-11-20T14:23:30;97892.88;;;5.14
11926;BMP180;6022;48.768;18.608;2022-11-20T14:25:58;97892.94;;;5.13
11926;BMP180;6022;48.768;18.608;2022-11-20T14:28:30;97885.72;;;5.07
11926;BMP180;6022;48.768;18.608;2022-11-20T14:30:58;97883.38;;;5.04
11926;BMP180;6022;48.768;18.608;2022-11-20T14:33:26;97878.16;;;5.07
11926;BMP180;6022;48.768;18.608;2022-11-20T14:35:56;97876.78;;;5.01
11926;BMP180;6022;48.768;18.608;2022-11-20T14:38:29;97869.63;;;4.94
11926;BMP180;6022;48.768;18.608;2022-11-20T14:41:17;97869.13;;;4.88
11926;BMP180;6022;48.768;18.608;2022-11-20T14:43:56;97869.34;;;4.83
11926;BMP180;6022;48.768;18.608;2022-11-20T14:46:26;97868.91;;;4.75
11926;BMP180;6022;48.768;18.608;2022-11-20T14:48:57;97864.72;;;4.76
11926;BMP180;6022;48.768;18.608;2022-11-20T14:54:21;97868.41;;;4.69
11926;BMP180;6022;48.768;18.608;2022-11-20T14:57:02;97857.69;;;4.65
11926;BMP180;6022;48.768;18.608;2022-11-20T14:59:33;97856.94;;;4.63
11926;BMP180;6022;48.768;18.608;2022-11-20T15:02:06;97867.22;;;4.59
11926;BMP180;6022;48.768;18.608;2022-11-20T15:04:56;97874.22;;;4.52
11926;BMP180;6022;48.768;18.608;2022-11-20T15:07:39;97862.13;;;4.44
11926;BMP180;6022;48.768;18.608;2022-11-20T15:10:23;97863.88;;;4.42
11926;BMP180;6022;48.768;18.608;2022-11-20T15:12:55;97858.97;;;4.40
11926;BMP180;6022;48.768;18.608;2022-11-20T15:15:38;97875.69;;;4.40
11926;BMP180;6022;48.768;18.608;2022-11-20T15:18:13;97876.66;;;4.37
11926;BMP180;6022;48.768;18.608;2022-11-20T15:20:42;97890.13;;;4.36
11926;BMP180;6022;48.768;18.608;2022-11-20T15:23:13;97882.59;;;4.36
11926;BMP180;6022;48.768;18.608;2022-11-20T15:25:42;97881.75;;;4.36
11926;BMP180;6022;48.768;18.608;2022-11-20T15:28:25;97878.44;;;4.35
11926;BMP180;6022;48.768;18.608;2022-11-20T15:30:54;97886.03;;;4.34
11926;BMP180;6022;48.768;18.608;2022-11-20T15:33:23;97874.50;;;4.30
11926;BMP180;6022;48.768;18.608;2022-11-20T15:35:50;97876.16;;;4.31
11926;BMP180;6022;48.768;18.608;2022-11-20T15:38:18;97876.16;;;4.31
11926;BMP180;6022;48.768;18.608;2022-11-20T15:40:45;97881.00;;;4.34
11926;BMP180;6022;48.768;18.608;2022-11-20T15:43:13;97881.19;;;4.31
11926;BMP180;6022;48.768;18.608;2022-11-20T15:45:44;97876.16;;;4.31
11926;BMP180;6022;48.768;18.608;2022-11-20T15:48:20;97874.50;;;4.30
11926;BMP180;6022;48.768;18.608;2022-11-20T15:51:02;97882.94;;;4.29
11926;BMP180;6022;48.768;18.608;2022-11-20T15:53:30;97871.44;;;4.25
11926;BMP180;6022;48.768;18.608;2022-11-20T15:55:57;97858.09;;;4.23
11926;BMP180;6022;48.768;18.608;2022-11-20T15:58:25;97848.97;;;4.22
11926;BMP180;6022;48.768;18.608;2022-11-20T16:00:53;97852.72;;;4.13
11926;BMP180;6022;48.768;18.608;2022-11-20T16:03:21;97850.78;;;4.02
11926;BMP180;6022;48.768;18.608;2022-11-20T16:05:49;97853.28;;;4.02
11926;BMP180;6022;48.768;18.608;2022-11-20T16:08:16;97847.31;;;4.04
11926;BMP180;6022;48.768;18.608;2022-11-20T16:10:43;97845.69;;;4.03
11926;BMP180;6022;48.768;18.608;2022-11-20T16:13:16;97844.97;;;4.01
11926;BMP180;6022;48.768;18.608;2022-11-20T16:16:14;97842.44;;;4.01
11926;BMP180;6022;48.768;18.608;2022-11-20T16:18:45;97850.03;;;4.00
11926;BMP180;6022;48.768;18.608;2022-11-20T16:21:12;97858.53;;;3.97
11926;BMP180;6022;48.768;18.608;2022-11-20T16:23:41;97858.66;;;3.94
11926;BMP180;6022;48.768;18.608;2022-11-20T16:26:30;97863.75;;;3.93
11926;BMP180;6022;48.768;18.608;2022-11-20T16:28:59;97869.59;;;3.93
11926;BMP180;6022;48.768;18.608;2022-11-20T16:31:27;97879.63;;;3.93
11926;BMP180;6022;48.768;18.608;2022-11-20T16:33:58;97882.13;;;3.93
11926;BMP180;6022;48.768;18.608;2022-11-20T16:36:27;97883.75;;;3.94
11926;BMP180;6022;48.768;18.608;2022-11-20T16:38:58;97877.88;;;3.95
11926;BMP180;6022;48.768;18.608;2022-11-20T16:41:30;97881.25;;;3.94